createdAt,value
2022-11-05T00:00:11.347Z,1213.6
2022-11-05T00:01:54.734Z,1214.6
2022-11-05T00:03:38.145Z,1212.7
2022-11-05T00:08:47.356Z,1216
2022-11-05T00:10:30.844Z,1219.8
2022-11-05T00:12:14.172Z,1220.2
2022-11-05T00:13:57.558Z,1221
2022-11-05T00:15:40.951Z,1220.8
2022-11-05T00:17:24.414Z,1220.5
2022-11-05T00:19:07.740Z,1222.2
2022-11-05T00:20:51.141Z,1224.3
2022-11-05T00:24:17.624Z,1228.5
2022-11-05T00:26:01.014Z,1229.2
2022-11-05T00:27:44.431Z,1233
2022-11-05T00:29:27.815Z,1234.3
2022-11-05T00:31:11.211Z,1232
2022-11-05T00:32:54.608Z,1232.4
2022-11-05T00:34:37.997Z,1234.2
2022-11-05T00:36:21.413Z,1237
2022-11-05T00:41:30.627Z,1243.3
2022-11-05T00:43:14.044Z,1244.1
2022-11-05T00:44:57.434Z,1243.6
2022-11-05T00:46:40.825Z,1240.3
2022-11-05T00:48:24.257Z,1239.4
2022-11-05T00:50:07.628Z,1239.3
2022-11-05T00:51:51.021Z,1236.8
2022-11-05T00:53:34.433Z,1235.8
2022-11-05T00:57:00.922Z,1229.6
2022-11-05T00:58:44.326Z,1227.2
2022-11-05T01:00:27.776Z,1225.5
2022-11-05T01:02:11.133Z,1228
2022-11-05T01:03:54.480Z,1230.4
2022-11-05T01:05:37.877Z,1233.7
2022-11-05T01:07:21.311Z,1233.7
2022-11-05T01:09:04.665Z,1233.3
2022-11-05T01:10:48.369Z,1235.5
2022-11-05T01:12:31.759Z,1231.5
2022-11-05T01:14:15.176Z,1231.5
2022-11-05T01:15:58.575Z,1232.4
2022-11-05T01:17:41.948Z,1233.4
2022-11-05T01:19:25.341Z,1235.2
2022-11-05T01:21:08.735Z,1234.6
2022-11-05T01:22:52.167Z,1231.7
2022-11-05T01:28:01.388Z,1229
2022-11-05T01:29:44.786Z,1231.2
2022-11-05T01:31:28.193Z,1235.1
2022-11-05T01:33:11.660Z,1233.3
2022-11-05T01:34:54.980Z,1229.5
2022-11-05T01:36:38.357Z,1228.7
2022-11-05T01:38:21.757Z,1226.1
2022-11-05T01:40:05.160Z,1221.8
2022-11-05T01:43:31.665Z,1222.1
2022-11-05T01:45:15.062Z,1218.3
2022-11-05T01:46:58.439Z,1215
2022-11-05T01:48:41.823Z,1213.7
2022-11-05T01:50:25.214Z,1213.5
2022-11-05T01:52:08.611Z,1216
2022-11-05T01:53:52.037Z,1219
2022-11-05T01:55:35.402Z,1217
2022-11-05T01:59:01.881Z,1215.9
2022-11-05T02:00:45.282Z,1208.6
2022-11-05T02:02:28.673Z,1204
2022-11-05T02:04:12.088Z,1198.8
2022-11-05T02:05:55.465Z,1191.2
2022-11-05T02:07:38.860Z,1189.6
2022-11-05T02:09:22.287Z,1188.2
2022-11-05T02:11:05.648Z,1189.4
2022-11-05T02:14:32.122Z,1187.7
2022-11-05T02:16:15.519Z,1187.2
2022-11-05T02:17:58.927Z,1187.5
2022-11-05T02:19:42.315Z,1190.2
2022-11-05T02:21:25.727Z,1190.7
2022-11-05T02:23:09.123Z,1188.3
2022-11-05T02:24:52.532Z,1185.6
2022-11-05T02:26:35.951Z,1184.1
2022-11-05T02:30:02.378Z,1176.8
2022-11-05T02:31:45.788Z,1177.3
2022-11-05T02:33:29.185Z,1176
2022-11-05T02:35:12.594Z,1173.6
2022-11-05T02:36:55.989Z,1169.2
2022-11-05T02:38:39.455Z,1166.5
2022-11-05T02:40:22.800Z,1165
2022-11-05T02:42:06.170Z,1165.1
2022-11-05T02:47:15.405Z,1167.1
2022-11-05T02:48:58.842Z,1169.5
2022-11-05T02:50:42.194Z,1173.6
2022-11-05T02:52:25.596Z,1174.3
2022-11-05T02:54:08.981Z,1177
2022-11-05T02:55:52.412Z,1177.3
2022-11-05T02:57:35.798Z,1178.4
2022-11-05T02:59:19.194Z,1178
2022-11-05T03:02:45.650Z,1174.6
2022-11-05T03:04:29.053Z,1174.1
2022-11-05T03:06:12.441Z,1170.6
2022-11-05T03:07:55.856Z,1167
2022-11-05T03:09:39.238Z,1161.1
2022-11-05T03:11:22.624Z,1155.5
2022-11-05T03:13:06.013Z,1155.4
2022-11-05T03:14:49.420Z,1151.7
2022-11-05T03:18:15.901Z,1146.6
2022-11-05T03:19:59.291Z,1145.5
2022-11-05T03:21:42.688Z,1143.6
2022-11-05T03:23:26.080Z,1144.1
2022-11-05T03:25:09.477Z,1144.6
2022-11-05T03:26:52.869Z,1147.2
2022-11-05T03:28:36.264Z,1146
2022-11-05T03:30:19.663Z,1144.1
2022-11-05T03:33:46.135Z,1144.3
2022-11-05T03:35:29.539Z,1142.7
2022-11-05T03:37:12.929Z,1139.7
2022-11-05T03:38:56.329Z,1140.6
2022-11-05T03:40:39.729Z,1140.8
2022-11-05T03:42:23.131Z,1138.5
2022-11-05T03:44:06.526Z,1134.8
2022-11-05T03:45:49.935Z,1135.1
2022-11-05T03:50:59.159Z,1143.7
2022-11-05T03:52:42.553Z,1146.5
2022-11-05T03:54:25.952Z,1143.7
2022-11-05T03:56:09.343Z,1140
2022-11-05T03:57:52.750Z,1136
2022-11-05T03:59:36.152Z,1135.4
2022-11-05T04:01:19.530Z,1135.1
2022-11-05T04:03:02.943Z,1135
2022-11-05T04:08:12.181Z,1137.8
2022-11-05T04:09:55.580Z,1136.8
2022-11-05T04:11:38.984Z,1135.4
2022-11-05T04:13:22.382Z,1133.4
2022-11-05T04:15:05.764Z,1132.4
2022-11-05T04:16:49.179Z,1130.5
2022-11-05T04:18:32.577Z,1127
2022-11-05T04:20:15.988Z,1125.7
2022-11-05T04:25:25.206Z,1125.5
2022-11-05T04:27:08.663Z,1125.3
2022-11-05T04:28:52.008Z,1126
2022-11-05T04:30:35.424Z,1128.7
2022-11-05T04:32:18.796Z,1129.3
2022-11-05T04:34:02.786Z,1128.4
2022-11-05T04:35:45.577Z,1124.7
2022-11-05T04:37:28.976Z,1125.4
2022-11-05T04:39:12.378Z,1124.6
2022-11-05T04:40:56.087Z,1123.6
2022-11-05T04:42:39.511Z,1124.7
2022-11-05T04:44:22.904Z,1127
2022-11-05T04:46:06.266Z,1124
2022-11-05T04:47:49.655Z,1121.7
2022-11-05T04:49:33.073Z,1120.6
2022-11-05T04:51:16.577Z,1120.6
2022-11-05T04:52:59.866Z,1122
2022-11-05T04:54:43.256Z,1119.8
2022-11-05T04:58:09.721Z,1119.3
2022-11-05T04:59:53.120Z,1118.3
2022-11-05T05:01:36.514Z,1116
2022-11-05T05:03:19.943Z,1115.1
2022-11-05T05:05:03.322Z,1113.6
2022-11-05T05:06:46.697Z,1112.3
2022-11-05T05:08:30.100Z,1110.7
2022-11-05T05:10:13.503Z,1110.6
2022-11-05T05:11:56.891Z,1108.4
2022-11-05T05:13:40.611Z,1110.6
2022-11-05T05:15:24.001Z,1111.8
2022-11-05T05:17:07.419Z,1109.5
2022-11-05T05:18:50.809Z,1111.4
2022-11-05T05:20:34.212Z,1111.3
2022-11-05T05:22:17.612Z,1111.7
2022-11-05T05:24:00.995Z,1109.3
2022-11-05T05:25:44.376Z,1108.1
2022-11-05T05:27:27.766Z,1108.8
2022-11-05T05:29:11.495Z,1107.1
2022-11-05T05:32:38.277Z,1107.2
2022-11-05T05:34:21.660Z,1106.1
2022-11-05T05:36:05.061Z,1106.6
2022-11-05T05:37:48.470Z,1107.1
2022-11-05T05:39:31.869Z,1108.5
2022-11-05T05:41:15.251Z,1106.4
2022-11-05T05:42:58.649Z,1100.1
2022-11-05T05:44:42.360Z,1099
2022-11-05T05:46:25.762Z,1095.3
2022-11-05T05:48:09.173Z,1099.3
2022-11-05T05:49:52.583Z,1100.4
2022-11-05T05:51:35.952Z,1103.4
2022-11-05T05:53:19.340Z,1104.8
2022-11-05T05:55:02.745Z,1101.8
2022-11-05T05:56:46.145Z,1102
2022-11-05T05:58:29.536Z,1102.2
2022-11-05T06:00:13.239Z,1100.2
2022-11-05T06:01:56.634Z,1097.3
2022-11-05T06:03:40.066Z,1098.2
2022-11-05T06:05:23.443Z,1096.6
2022-11-05T06:07:06.821Z,1097.4
2022-11-05T06:08:50.215Z,1096.1
2022-11-05T06:10:33.691Z,1094.7
2022-11-05T06:12:17.030Z,1093
2022-11-05T06:17:26.350Z,1091.5
2022-11-05T06:19:09.656Z,1092.1
2022-11-05T06:20:53.053Z,1093.6
2022-11-05T06:22:36.459Z,1092.6
2022-11-05T06:24:19.897Z,1093.6
2022-11-05T06:26:03.275Z,1096
2022-11-05T06:27:46.653Z,1095.4
2022-11-05T06:29:30.058Z,1097.6
2022-11-05T06:31:13.437Z,1097.5
2022-11-05T06:32:57.214Z,1095.4
2022-11-05T06:34:40.523Z,1095.2
2022-11-05T06:36:23.958Z,1094.1
2022-11-05T06:38:07.383Z,1093.6
2022-11-05T06:39:50.768Z,1092.5
2022-11-05T06:41:34.115Z,1093.1
2022-11-05T06:43:17.518Z,1091
2022-11-05T06:45:00.979Z,1090.3
2022-11-05T06:50:10.171Z,1090.2
2022-11-05T06:51:53.611Z,1086.6
2022-11-05T06:53:36.963Z,1085.2
2022-11-05T06:55:20.364Z,1086
2022-11-05T06:57:03.763Z,1084.6
2022-11-05T06:58:47.141Z,1085.7
2022-11-05T07:00:30.540Z,1087.7
2022-11-05T07:02:13.954Z,1091.4
2022-11-05T07:07:23.188Z,1103.9
2022-11-05T07:09:06.605Z,1106.2
2022-11-05T07:10:49.978Z,1107.4
2022-11-05T07:12:33.435Z,1113.8
2022-11-05T07:14:16.812Z,1118.7
2022-11-05T07:16:00.176Z,1122.6
2022-11-05T07:17:43.574Z,1124.4
2022-11-05T07:19:26.961Z,1126.8
2022-11-05T07:21:10.367Z,1130.1
2022-11-05T07:22:54.054Z,1131.4
2022-11-05T07:24:37.452Z,1130.2
2022-11-05T07:26:20.852Z,1135
2022-11-05T07:28:04.280Z,1139.2
2022-11-05T07:29:47.652Z,1139.8
2022-11-05T07:31:31.055Z,1138.4
2022-11-05T07:33:14.475Z,1140.5
2022-11-05T07:34:57.835Z,1142
2022-11-05T07:36:41.297Z,1139.5
2022-11-05T07:38:24.979Z,1119.5
2022-11-05T07:40:08.334Z,837.3
2022-11-05T07:41:51.851Z,696.6
2022-11-05T07:43:35.231Z,596.2
2022-11-05T07:45:18.518Z,577.5
2022-11-05T07:47:01.914Z,576
2022-11-05T07:48:45.323Z,575.1
2022-11-05T07:50:28.698Z,573.2
2022-11-05T07:52:12.149Z,571.1
2022-11-05T07:53:55.881Z,572.3
2022-11-05T07:55:39.222Z,570.6
2022-11-05T07:57:22.616Z,571.5
2022-11-05T07:59:06.052Z,574.2
2022-11-05T08:00:49.449Z,579.6
2022-11-05T08:02:32.841Z,586.2
2022-11-05T08:04:16.295Z,591.6
2022-11-05T08:05:59.580Z,598.1
2022-11-05T08:07:42.996Z,601.7
2022-11-05T08:11:09.479Z,613.4
2022-11-05T08:12:52.838Z,619.3
2022-11-05T08:14:36.269Z,622.6
2022-11-05T08:16:19.659Z,628
2022-11-05T08:18:03.036Z,628.2
2022-11-05T08:19:46.424Z,632.4
2022-11-05T08:21:29.866Z,636.1
2022-11-05T08:23:13.219Z,638.5
2022-11-05T08:24:56.632Z,641.1
2022-11-05T08:30:05.861Z,652.2
2022-11-05T08:31:49.260Z,654.8
2022-11-05T08:33:32.697Z,657.3
2022-11-05T08:35:16.063Z,663.4
2022-11-05T08:36:59.460Z,667.3
2022-11-05T08:38:42.929Z,674.1
2022-11-05T08:40:26.237Z,677.4
2022-11-05T08:42:09.630Z,678.4
2022-11-05T08:43:53.043Z,678.3
2022-11-05T08:47:19.491Z,679.5
2022-11-05T08:49:02.946Z,682.8
2022-11-05T08:50:46.322Z,685
2022-11-05T08:52:29.696Z,687.5
2022-11-05T08:54:13.117Z,690.2
2022-11-05T08:55:56.534Z,696.8
2022-11-05T08:57:39.872Z,753.5
2022-11-05T08:59:23.267Z,779.5
2022-11-05T09:01:06.680Z,783
2022-11-05T09:04:33.188Z,822.9
2022-11-05T09:06:16.631Z,833.4
2022-11-05T09:07:59.960Z,842.7
2022-11-05T09:09:43.336Z,861.7
2022-11-05T09:11:26.738Z,862.5
2022-11-05T09:13:10.123Z,858.2
2022-11-05T09:14:53.531Z,857.6
2022-11-05T09:16:36.932Z,857.4
2022-11-05T09:18:20.319Z,855.4
2022-11-05T09:20:04.023Z,853.6
2022-11-05T09:21:47.413Z,853.4
2022-11-05T09:23:30.813Z,854.3
2022-11-05T09:25:14.224Z,853.3
2022-11-05T09:26:57.671Z,853
2022-11-05T09:28:40.993Z,850.8
2022-11-05T09:30:24.427Z,851.8
2022-11-05T09:32:07.794Z,850.1
2022-11-05T09:33:51.197Z,850.7
2022-11-05T09:37:17.653Z,845.2
2022-11-05T09:39:01.078Z,846.8
2022-11-05T09:40:44.443Z,845.4
2022-11-05T09:42:27.920Z,843.4
2022-11-05T09:44:11.278Z,842
2022-11-05T09:45:54.651Z,842.3
2022-11-05T09:47:38.065Z,839.7
2022-11-05T09:49:21.495Z,840
2022-11-05T09:51:04.832Z,836.8
2022-11-05T09:52:48.543Z,833.2
2022-11-05T09:54:31.937Z,828.3
2022-11-05T09:56:15.333Z,829.5
2022-11-05T09:57:58.762Z,828.7
2022-11-05T09:59:42.116Z,826.7
2022-11-05T10:01:25.517Z,824.3
2022-11-05T10:03:08.902Z,820.5
2022-11-05T10:04:52.335Z,818
2022-11-05T10:06:35.699Z,815
2022-11-05T10:10:02.164Z,815.1
2022-11-05T10:11:45.575Z,817.7
2022-11-05T10:13:28.966Z,826
2022-11-05T10:15:12.370Z,862.7
2022-11-05T10:16:55.751Z,889.4
2022-11-05T10:18:39.155Z,900.7
2022-11-05T10:20:22.553Z,903.1
2022-11-05T10:22:06.016Z,904.5
2022-11-05T10:27:15.201Z,908.1
2022-11-05T10:28:58.688Z,903.3
2022-11-05T10:30:41.979Z,903.1
2022-11-05T10:32:25.386Z,900.8
2022-11-05T10:34:08.794Z,902.6
2022-11-05T10:35:52.178Z,903
2022-11-05T10:37:35.591Z,901.6
2022-11-05T10:39:18.953Z,899.1
2022-11-05T10:44:28.191Z,902
2022-11-05T10:46:11.599Z,904.5
2022-11-05T10:47:54.991Z,905.5
2022-11-05T10:49:38.412Z,906.8
2022-11-05T10:51:21.786Z,906.6
2022-11-05T10:53:05.181Z,911.5
2022-11-05T10:54:48.581Z,914.8
2022-11-05T10:56:31.985Z,918.2
2022-11-05T11:01:41.222Z,918.8
2022-11-05T11:03:24.614Z,917.5
2022-11-05T11:05:07.999Z,915
2022-11-05T11:06:51.413Z,917.2
2022-11-05T11:08:34.794Z,929.4
2022-11-05T11:10:18.218Z,933.1
2022-11-05T11:12:01.625Z,935.7
2022-11-05T11:13:44.999Z,935.2
2022-11-05T11:15:28.440Z,935
2022-11-05T11:18:54.859Z,943.6
2022-11-05T11:20:38.292Z,943.4
2022-11-05T11:22:21.694Z,947.5
2022-11-05T11:24:05.074Z,950.5
2022-11-05T11:25:48.452Z,952.4
2022-11-05T11:27:31.887Z,956.8
2022-11-05T11:29:15.289Z,960.1
2022-11-05T11:30:58.630Z,961.7
2022-11-05T11:36:07.865Z,973.2
2022-11-05T11:37:51.259Z,974.4
2022-11-05T11:39:34.668Z,979.1
2022-11-05T11:41:18.107Z,983.2
2022-11-05T11:43:01.475Z,982.8
2022-11-05T11:44:44.845Z,987.7
2022-11-05T11:46:28.275Z,993.6
2022-11-05T11:48:11.677Z,999.3
2022-11-05T11:51:38.180Z,1021
2022-11-05T11:53:21.510Z,1033.4
2022-11-05T11:55:04.955Z,1044.5
2022-11-05T11:56:48.338Z,1078.3
2022-11-05T11:58:31.707Z,1098.4
2022-11-05T12:00:15.096Z,1091.2
2022-11-05T12:01:58.490Z,1083.3
2022-11-05T12:03:41.893Z,1085.7
2022-11-05T12:08:51.205Z,1092.2
2022-11-05T12:10:34.524Z,1089
2022-11-05T12:12:17.915Z,1090.2
2022-11-05T12:15:44.706Z,1091.1
2022-11-05T12:17:28.134Z,1087.5
2022-11-05T12:19:11.526Z,1080.3
2022-11-05T12:20:54.898Z,1083.5
2022-11-05T12:26:04.133Z,1085.9
2022-11-05T12:27:47.535Z,1090
2022-11-05T12:29:30.926Z,1093
2022-11-05T12:31:14.344Z,1097.8
2022-11-05T12:32:57.729Z,1097.3
2022-11-05T12:34:41.125Z,1094.5
2022-11-05T12:36:24.533Z,1096.7
2022-11-05T12:38:07.930Z,1102.7
2022-11-05T12:43:17.151Z,1107.4
2022-11-05T12:45:00.555Z,1108
2022-11-05T12:46:43.989Z,1110.3
2022-11-05T12:48:27.364Z,1119
2022-11-05T12:50:10.731Z,1121.8
2022-11-05T12:51:54.143Z,1126.7
2022-11-05T12:53:37.554Z,1128.4
2022-11-05T12:55:20.968Z,1134.8
2022-11-05T12:57:04.324Z,1137.8
2022-11-05T12:58:48.104Z,1140.9
2022-11-05T13:00:31.433Z,1145.2
2022-11-05T13:02:14.851Z,1146.5
2022-11-05T13:03:58.224Z,1148.7
2022-11-05T13:05:41.615Z,1149.6
2022-11-05T13:07:25.021Z,1153.6
2022-11-05T13:09:08.418Z,1157.1
2022-11-05T13:10:51.814Z,1160.6
2022-11-05T13:16:01.069Z,1154.2
2022-11-05T13:17:44.435Z,1152.1
2022-11-05T13:19:27.839Z,1154.2
2022-11-05T13:21:11.257Z,1156.2
2022-11-05T13:22:54.640Z,1157.4
2022-11-05T13:24:38.036Z,1159.6
2022-11-05T13:26:21.468Z,1164.4
2022-11-05T13:28:04.856Z,1168.4
2022-11-05T13:31:31.289Z,1181
2022-11-05T13:33:14.728Z,1186.1
2022-11-05T13:34:58.095Z,1192.8
2022-11-05T13:36:41.477Z,1197.1
2022-11-05T13:38:24.914Z,1204.2
2022-11-05T13:40:08.282Z,1210.4
2022-11-05T13:41:51.663Z,1212.6
2022-11-05T13:43:35.123Z,1209
2022-11-05T13:48:44.326Z,1205.5
2022-11-05T13:50:27.782Z,1204.8
2022-11-05T13:52:11.109Z,1199.8
2022-11-05T13:53:54.553Z,1194.1
2022-11-05T13:55:37.949Z,1190.8
2022-11-05T13:57:21.299Z,1186.5
2022-11-05T13:59:04.760Z,1186
2022-11-05T14:00:48.128Z,1182.3
2022-11-05T14:04:14.558Z,1167.9
2022-11-05T14:05:57.973Z,1167.1
2022-11-05T14:07:41.357Z,1167.1
2022-11-05T14:09:24.750Z,1165.5
2022-11-05T14:11:08.148Z,1165.7
2022-11-05T14:12:51.549Z,1160.3
2022-11-05T14:14:34.944Z,1153.7
2022-11-05T14:16:18.337Z,1147.7
2022-11-05T14:19:44.815Z,1146.8
2022-11-05T14:21:28.201Z,1143.6
2022-11-05T14:23:11.599Z,1151
2022-11-05T14:24:55.037Z,1173.4
2022-11-05T14:26:38.412Z,1184.8
2022-11-05T14:28:21.780Z,1196.6
2022-11-05T14:30:05.223Z,1205.2
2022-11-05T14:31:48.586Z,1209.6
2022-11-05T14:36:57.835Z,1214
2022-11-05T14:38:41.226Z,1213.7
2022-11-05T14:40:24.608Z,1210.6
2022-11-05T14:42:08.060Z,1212.3
2022-11-05T14:43:51.433Z,1212.5
2022-11-05T14:45:34.808Z,1213.7
2022-11-05T14:47:18.218Z,1214.6
2022-11-05T14:49:01.651Z,1212.2
2022-11-05T14:54:10.831Z,1214.9
2022-11-05T14:55:54.246Z,1213.8
2022-11-05T14:57:37.644Z,1215
2022-11-05T14:59:21.027Z,1213.8
2022-11-05T15:01:04.477Z,1216.4
2022-11-05T15:02:47.817Z,1221.4
2022-11-05T15:04:31.255Z,1227.4
2022-11-05T15:06:14.608Z,1233.8
2022-11-05T15:07:58.061Z,1239.3
2022-11-05T15:11:24.483Z,1236.8
2022-11-05T15:13:07.888Z,1235.8
2022-11-05T15:14:51.326Z,1237
2022-11-05T15:16:34.668Z,1239.8
2022-11-05T15:18:18.095Z,1243.3
2022-11-05T15:20:01.474Z,1242.8
2022-11-05T15:21:44.866Z,1243
2022-11-05T15:23:28.255Z,1242.4
2022-11-05T15:26:54.743Z,1243.2
2022-11-05T15:28:38.145Z,1251.1
2022-11-05T15:30:21.554Z,1255.6
2022-11-05T15:32:04.960Z,1257.2
2022-11-05T15:33:48.352Z,1258.7
2022-11-05T15:35:31.710Z,1263
2022-11-05T15:37:15.107Z,1266
2022-11-05T15:38:58.530Z,1265.1
2022-11-05T15:42:24.993Z,1261.2
2022-11-05T15:44:08.393Z,1260.8
2022-11-05T15:45:51.789Z,1263.1
2022-11-05T15:47:35.181Z,1263.4
2022-11-05T15:49:18.577Z,1267.3
2022-11-05T15:51:02.007Z,1270
2022-11-05T15:52:45.379Z,1269.3
2022-11-05T15:54:28.756Z,1268.1
2022-11-05T15:59:38.017Z,1255.4
2022-11-05T16:01:21.387Z,1255.5
2022-11-05T16:03:04.832Z,1253.3
2022-11-05T16:04:48.192Z,1268
2022-11-05T16:06:31.583Z,1273.8
2022-11-05T16:08:15.025Z,1280.6
2022-11-05T16:09:58.408Z,1290.8
2022-11-05T16:11:41.781Z,1304
2022-11-05T16:15:08.253Z,1333.7
2022-11-05T16:16:51.658Z,1339.6
2022-11-05T16:18:35.027Z,1351.4
2022-11-05T16:20:18.482Z,1356.2
2022-11-05T16:22:01.846Z,1358.2
2022-11-05T16:23:45.235Z,1361.5
2022-11-05T16:25:28.634Z,1365.3
2022-11-05T16:27:12.020Z,1370.8
2022-11-05T16:30:38.509Z,1383.9
2022-11-05T16:32:21.907Z,1391.1
2022-11-05T16:34:05.290Z,1403.5
2022-11-05T16:35:48.678Z,1406.6
2022-11-05T16:37:32.072Z,1408.8
2022-11-05T16:39:15.487Z,1407.3
2022-11-05T16:40:58.905Z,1402
2022-11-05T16:42:42.267Z,1395.7
2022-11-05T16:47:51.530Z,1378.4
2022-11-05T16:49:34.911Z,1374.7
2022-11-05T16:51:18.335Z,1370.6
2022-11-05T16:53:01.726Z,1370.4
2022-11-05T16:54:45.110Z,1370.4
2022-11-05T16:56:28.522Z,1372.3
2022-11-05T16:58:11.932Z,1372.4
2022-11-05T16:59:55.303Z,1370.3
2022-11-05T17:05:04.589Z,1375
2022-11-05T17:06:47.931Z,1374
2022-11-05T17:08:31.341Z,1377.2
2022-11-05T17:10:14.759Z,1375.7
2022-11-05T17:11:58.134Z,1376
2022-11-05T17:13:41.523Z,1377.4
2022-11-05T17:15:24.929Z,1376.5
2022-11-05T17:17:08.300Z,1375.4
2022-11-05T17:22:17.595Z,1363.2
2022-11-05T17:24:00.950Z,1362.2
2022-11-05T17:25:44.353Z,1361.5
2022-11-05T17:27:27.741Z,1361.2
2022-11-05T17:29:11.154Z,1361.7
2022-11-05T17:30:54.579Z,1357.6
2022-11-05T17:32:37.920Z,1350.5
2022-11-05T17:34:21.338Z,1348.3
2022-11-05T17:37:47.791Z,1344.2
2022-11-05T17:39:31.216Z,1345.3
2022-11-05T17:41:14.631Z,1347.3
2022-11-05T17:42:58.009Z,1351.2
2022-11-05T17:44:41.382Z,1356.8
2022-11-05T17:46:24.822Z,1359.2
2022-11-05T17:48:08.181Z,1360.6
2022-11-05T17:49:51.558Z,1362.4
2022-11-05T17:51:34.950Z,1364.2
2022-11-05T17:53:18.671Z,1360.9
2022-11-05T17:55:02.065Z,1366.8
2022-11-05T17:56:45.482Z,1374.6
2022-11-05T17:58:28.861Z,1369.8
2022-11-05T18:00:12.276Z,1361.6
2022-11-05T18:01:55.712Z,1352.3
2022-11-05T18:03:39.131Z,1347.7
2022-11-05T18:05:22.511Z,1347.7
2022-11-05T18:10:31.719Z,1337.8
2022-11-05T18:12:15.072Z,1339
2022-11-05T18:13:58.508Z,1337.1
2022-11-05T18:15:41.873Z,1333.8
2022-11-05T18:17:25.290Z,1333.4
2022-11-05T18:19:08.697Z,1331.5
2022-11-05T18:20:52.137Z,1332.6
2022-11-05T18:22:35.517Z,1329
2022-11-05T18:26:02.041Z,1331.2
2022-11-05T18:27:45.375Z,1330.2
2022-11-05T18:29:28.788Z,1330.8
2022-11-05T18:31:12.155Z,1329.8
2022-11-05T18:32:55.536Z,1326.7
2022-11-05T18:34:38.919Z,1323.1
2022-11-05T18:36:22.431Z,1321.3
2022-11-05T18:38:05.705Z,1318.3
2022-11-05T18:41:32.203Z,1315.1
2022-11-05T18:43:15.678Z,1314.8
2022-11-05T18:44:58.960Z,1315.2
2022-11-05T18:46:42.371Z,1318.6
2022-11-05T18:48:25.791Z,1323.2
2022-11-05T18:50:09.269Z,1325.4
2022-11-05T18:51:52.565Z,1324.6
2022-11-05T18:53:35.989Z,1321.1
2022-11-05T18:57:02.420Z,1318.8
2022-11-05T18:58:45.820Z,1324.1
2022-11-05T19:00:29.293Z,1328.8
2022-11-05T19:02:12.655Z,1330.5
2022-11-05T19:03:56.037Z,1334.6
2022-11-05T19:05:39.441Z,1341.8
2022-11-05T19:07:22.798Z,1355.5
2022-11-05T19:09:06.203Z,1358.6
2022-11-05T19:12:32.696Z,1366
2022-11-05T19:14:16.090Z,1371.2
2022-11-05T19:15:59.499Z,1374.1
2022-11-05T19:17:42.855Z,1371.8
2022-11-05T19:19:26.261Z,1369.5
2022-11-05T19:21:09.661Z,1373.7
2022-11-05T19:22:53.059Z,1378.7
2022-11-05T19:24:36.496Z,1377.6
2022-11-05T19:28:03.005Z,1381
2022-11-05T19:29:46.376Z,1377.4
2022-11-05T19:31:29.781Z,1362.4
2022-11-05T19:33:13.205Z,1343.6
2022-11-05T19:34:56.526Z,1339.8
2022-11-05T19:36:39.962Z,1338
2022-11-05T19:38:23.328Z,1334
2022-11-05T19:40:06.787Z,1334.3
2022-11-05T19:43:33.177Z,1332.2
2022-11-05T19:45:16.554Z,1332.1
2022-11-05T19:46:59.943Z,1332
2022-11-05T19:48:43.438Z,1331
2022-11-05T19:50:26.829Z,1328.6
2022-11-05T19:52:10.192Z,1327.2
2022-11-05T19:53:53.541Z,1326.6
2022-11-05T19:55:36.933Z,1323.4
2022-11-05T19:59:03.401Z,1327.4
2022-11-05T20:00:46.848Z,1324.7
2022-11-05T20:02:30.256Z,1324
2022-11-05T20:04:13.626Z,1317.8
2022-11-05T20:05:57.030Z,1315.1
2022-11-05T20:07:40.444Z,1313.3
2022-11-05T20:09:23.865Z,1311.7
2022-11-05T20:11:07.257Z,1311.8
2022-11-05T20:12:50.649Z,1312.6
2022-11-05T20:14:34.331Z,1313.5
2022-11-05T20:16:17.681Z,1315.1
2022-11-05T20:18:01.086Z,1315.7
2022-11-05T20:19:44.481Z,1315.5
2022-11-05T20:21:27.873Z,1316.7
2022-11-05T20:23:11.245Z,1316.8
2022-11-05T20:24:54.744Z,1316.4
2022-11-05T20:26:38.058Z,1311.4
2022-11-05T20:31:47.334Z,1306.7
2022-11-05T20:33:30.680Z,1307.6
2022-11-05T20:35:14.082Z,1308.7
2022-11-05T20:36:57.523Z,1306
2022-11-05T20:38:40.883Z,1309.1
2022-11-05T20:40:24.284Z,1311.3
2022-11-05T20:42:07.657Z,1311.3
2022-11-05T20:43:51.098Z,1308.8
2022-11-05T20:49:00.321Z,1314.9
2022-11-05T20:50:43.737Z,1315.5
2022-11-05T20:52:27.146Z,1314.7
2022-11-05T20:54:10.483Z,1311.2
2022-11-05T20:55:53.883Z,1311.6
2022-11-05T20:57:37.324Z,1310
2022-11-05T20:59:20.723Z,1308.8
2022-11-05T21:01:04.199Z,1314.8
2022-11-05T21:02:47.511Z,1326.5
2022-11-05T21:07:57.340Z,1359.4
2022-11-05T21:09:40.750Z,1358.7
2022-11-05T21:11:24.209Z,1350.2
2022-11-05T21:13:07.577Z,1336.5
2022-11-05T21:14:50.951Z,1326.6
2022-11-05T21:16:34.386Z,1317.4
2022-11-05T21:18:17.805Z,1312.8
2022-11-05T21:23:27.005Z,1302.2
2022-11-05T21:25:10.372Z,1295.3
2022-11-05T21:26:53.774Z,1292.3
2022-11-05T21:28:37.167Z,1290.8
2022-11-05T21:30:20.570Z,1287.4
2022-11-05T21:32:03.969Z,1287.3
2022-11-05T21:33:47.405Z,1290.7
2022-11-05T21:35:30.803Z,1295.5
2022-11-05T21:40:39.977Z,1294.8
2022-11-05T21:42:23.377Z,1294
2022-11-05T21:44:06.874Z,1295.2
2022-11-05T21:45:50.162Z,1295.7
2022-11-05T21:47:33.561Z,1295.4
2022-11-05T21:49:16.979Z,1293.7
2022-11-05T21:51:00.369Z,1294.3
2022-11-05T21:52:43.781Z,1295.6
2022-11-05T21:57:53.005Z,1286.6
2022-11-05T21:59:36.450Z,1282.3
2022-11-05T22:01:19.861Z,1283.4
2022-11-05T22:03:03.195Z,1283.5
2022-11-05T22:04:46.598Z,1283
2022-11-05T22:06:29.995Z,1281.5
2022-11-05T22:08:13.421Z,1277.7
2022-11-05T22:09:56.779Z,1277.3
2022-11-05T22:15:06.051Z,1277.3
2022-11-05T22:16:49.421Z,1280.4
2022-11-05T22:18:32.796Z,1281.3
2022-11-05T22:20:16.247Z,1292.4
2022-11-05T22:21:59.613Z,1300.2
2022-11-05T22:23:42.983Z,1303.6
2022-11-05T22:25:26.398Z,1297.5
2022-11-05T22:27:09.776Z,1282.6
2022-11-05T22:32:19.011Z,1207.2
2022-11-05T22:34:02.463Z,1201.7
2022-11-05T22:35:45.835Z,1197.6
2022-11-05T22:37:29.242Z,1195.1
2022-11-05T22:39:12.669Z,1193.3
2022-11-05T22:40:56.018Z,1194.5
2022-11-05T22:42:39.383Z,1198
2022-11-05T22:44:22.832Z,1198.5
2022-11-05T22:46:06.226Z,1199.6
2022-11-05T22:47:49.923Z,1200.9
2022-11-05T22:49:33.311Z,1199.5
2022-11-05T22:51:16.705Z,1199.7
2022-11-05T22:53:00.138Z,1200.6
2022-11-05T22:54:43.502Z,1199
2022-11-05T22:56:26.863Z,1199.6
2022-11-05T22:58:10.273Z,1200.7
2022-11-05T22:59:53.684Z,1202.3
2022-11-05T23:01:37.060Z,1203.4
2022-11-05T23:03:20.795Z,1208.7
2022-11-05T23:05:04.212Z,1215.2
2022-11-05T23:06:47.615Z,1218.3
2022-11-05T23:08:30.953Z,1223.2
2022-11-05T23:10:14.342Z,1220.6
2022-11-05T23:11:57.761Z,1217.8
2022-11-05T23:13:41.129Z,1212.4
2022-11-05T23:15:24.532Z,1206
2022-11-05T23:17:07.937Z,1203.3
2022-11-05T23:20:34.455Z,1203.2
2022-11-05T23:22:17.835Z,1200.7
2022-11-05T23:24:01.206Z,1198.4
2022-11-05T23:25:44.602Z,1197.6
2022-11-05T23:27:27.972Z,1199.3
2022-11-05T23:29:11.381Z,1202.7
2022-11-05T23:30:54.777Z,1204.6
2022-11-05T23:32:38.178Z,1203.7
2022-11-05T23:34:21.569Z,1201.7
2022-11-05T23:37:48.041Z,1204.4
2022-11-05T23:39:31.471Z,1204.3
2022-11-05T23:41:14.859Z,1207.4
2022-11-05T23:42:58.263Z,1206.2
2022-11-05T23:44:41.682Z,1206.2
2022-11-05T23:46:25.022Z,1206.8
2022-11-05T23:48:08.439Z,1205.4
2022-11-05T23:49:51.829Z,1202
2022-11-05T23:51:35.203Z,1198.5
2022-11-05T23:55:01.700Z,1189.2
2022-11-05T23:56:45.112Z,1181.4
2022-11-05T23:58:28.519Z,1177.2
